createdAt,value
2023-03-11T00:16:11.636Z,18.8
2023-03-11T00:36:11.564Z,18.7
2023-03-11T00:56:11.585Z,18.6
2023-03-11T01:16:11.525Z,18.6
2023-03-11T01:36:11.503Z,18.5
2023-03-11T01:56:11.515Z,18.4
2023-03-11T02:16:11.479Z,18.4
2023-03-11T02:36:11.430Z,18.3
2023-03-11T02:56:11.389Z,18.3
2023-03-11T03:16:11.408Z,18.2
2023-03-11T03:36:11.382Z,18.2
2023-03-11T03:56:11.344Z,18.2
2023-03-11T04:16:11.332Z,18.1
2023-03-11T04:36:11.308Z,18.1
2023-03-11T04:56:11.253Z,18.0
2023-03-11T05:16:11.242Z,18.0
2023-03-11T05:36:11.241Z,18.0
2023-03-11T05:56:11.182Z,18.3
2023-03-11T06:16:11.158Z,18.5
2023-03-11T06:36:11.148Z,18.7
2023-03-11T06:56:11.132Z,18.9
2023-03-11T07:16:11.116Z,19.0
2023-03-11T07:36:11.086Z,19.2
2023-03-11T07:56:11.050Z,19.4
2023-03-11T08:16:10.998Z,20.7
2023-03-11T08:36:11.016Z,20.4
2023-03-11T08:56:10.976Z,20.7
2023-03-11T09:16:10.924Z,20.4
2023-03-11T09:36:10.973Z,20.1
2023-03-11T09:56:10.900Z,19.9
2023-03-11T10:16:10.865Z,20.1
2023-03-11T10:36:10.844Z,19.8
2023-03-11T10:56:10.883Z,19.6
2023-03-11T11:16:10.799Z,19.8
2023-03-11T11:36:10.811Z,19.9
2023-03-11T11:56:10.746Z,19.9
2023-03-11T12:16:10.735Z,19.9
2023-03-11T12:36:10.677Z,19.9
2023-03-11T12:56:10.631Z,19.9
2023-03-11T13:16:10.640Z,19.9
2023-03-11T13:36:10.597Z,19.9
2023-03-11T13:56:10.673Z,19.9
2023-03-11T14:16:10.562Z,19.9
2023-03-11T14:36:10.523Z,19.9
2023-03-11T14:56:10.527Z,20.0
2023-03-11T15:16:10.467Z,20.0
2023-03-11T15:36:10.480Z,20.0
2023-03-11T15:56:10.462Z,20.0
2023-03-11T16:16:10.411Z,20.1
2023-03-11T16:36:10.371Z,20.2
2023-03-11T16:56:10.332Z,20.2
2023-03-11T17:16:10.340Z,20.1
2023-03-11T17:36:10.330Z,20.1
2023-03-11T17:56:10.396Z,20.1
2023-03-11T18:16:10.253Z,20.2
2023-03-11T18:36:10.228Z,20.2
2023-03-11T18:56:10.258Z,20.2
2023-03-11T19:16:10.270Z,20.1
2023-03-11T19:36:10.179Z,20.0
2023-03-11T19:56:10.123Z,19.8
2023-03-11T20:16:10.266Z,19.7
2023-03-11T20:36:10.101Z,19.5
2023-03-11T20:56:10.032Z,19.4
2023-03-11T21:16:10.047Z,19.3
2023-03-11T21:36:09.984Z,19.1
2023-03-11T21:56:09.950Z,19.0
2023-03-11T22:16:09.928Z,18.9
2023-03-11T22:36:09.924Z,18.8
2023-03-11T22:56:09.886Z,18.7
2023-03-11T23:16:09.870Z,18.7
2023-03-11T23:36:09.837Z,18.6
2023-03-11T23:56:09.838Z,18.5
